createdAt,value
2023-04-16T00:01:28.797Z,7.17
2023-04-16T00:06:32.245Z,7.15
2023-04-16T00:11:35.045Z,7.14
2023-04-16T00:16:38.723Z,7.12
2023-04-16T00:21:41.729Z,7.09
2023-04-16T00:26:46.390Z,7.08
2023-04-16T00:31:49.304Z,7.06
2023-04-16T00:36:52.299Z,7.04
2023-04-16T00:41:55.227Z,7.05
2023-04-16T00:46:59.618Z,7.01
2023-04-16T00:52:03.459Z,7.01
2023-04-16T00:57:06.631Z,7.01
2023-04-16T01:02:09.675Z,7.00
2023-04-16T01:07:12.726Z,7.01
2023-04-16T01:12:15.687Z,7.00
2023-04-16T01:17:18.543Z,6.98
2023-04-16T01:22:21.375Z,6.96
2023-04-16T01:27:24.199Z,6.95
2023-04-16T01:32:27.113Z,6.94
2023-04-16T01:37:31.055Z,6.96
2023-04-16T01:42:33.912Z,6.96
2023-04-16T01:47:37.015Z,6.97
2023-04-16T01:52:40.082Z,6.97
2023-04-16T01:57:43.006Z,6.93
2023-04-16T02:02:46.933Z,6.92
2023-04-16T02:07:50.094Z,6.90
2023-04-16T02:12:52.920Z,6.90
2023-04-16T02:17:57.353Z,6.88
2023-04-16T02:23:00.620Z,6.85
2023-04-16T02:28:03.560Z,6.82
2023-04-16T02:33:08.715Z,6.81
2023-04-16T02:38:11.636Z,6.79
2023-04-16T02:43:14.603Z,6.77
2023-04-16T02:48:17.546Z,6.73
2023-04-16T02:53:21.517Z,6.70
2023-04-16T02:58:26.513Z,6.65
2023-04-16T03:03:29.431Z,6.62
2023-04-16T03:08:32.306Z,6.59
2023-04-16T03:13:35.331Z,6.56
2023-04-16T03:18:38.154Z,6.51
2023-04-16T03:23:41.059Z,6.47
2023-04-16T03:28:43.870Z,6.46
2023-04-16T03:33:46.746Z,6.44
2023-04-16T03:38:50.711Z,6.43
2023-04-16T03:43:53.696Z,6.41
2023-04-16T03:48:56.471Z,6.35
2023-04-16T03:53:59.363Z,6.32
2023-04-16T03:59:02.205Z,6.32
2023-04-16T04:04:05.163Z,6.33
2023-04-16T04:09:08.421Z,6.32
2023-04-16T04:14:11.576Z,6.26
2023-04-16T04:19:14.386Z,6.19
2023-04-16T04:24:17.282Z,6.13
2023-04-16T04:29:20.320Z,6.10
2023-04-16T04:34:23.160Z,6.07
2023-04-16T04:39:26.322Z,6.06
2023-04-16T04:44:29.107Z,6.02
2023-04-16T04:49:32.082Z,6.03
2023-04-16T04:54:34.924Z,6.04
2023-04-16T04:59:37.807Z,6.06
2023-04-16T05:04:40.701Z,6.03
2023-04-16T05:09:43.653Z,6.05
2023-04-16T05:14:46.518Z,6.16
2023-04-16T05:19:49.428Z,6.15
2023-04-16T05:24:52.306Z,6.20
2023-04-16T05:29:55.456Z,6.33
2023-04-16T05:34:58.850Z,6.43
2023-04-16T05:40:01.747Z,6.54
2023-04-16T05:45:07.044Z,6.58
2023-04-16T05:50:10.884Z,6.74
2023-04-16T05:55:13.952Z,6.95
2023-04-16T06:00:17.167Z,7.04
2023-04-16T06:05:20.345Z,6.99
2023-04-16T06:10:23.433Z,7.10
2023-04-16T06:15:26.387Z,7.09
2023-04-16T06:20:29.718Z,6.93
2023-04-16T06:25:32.621Z,6.84
2023-04-16T06:30:35.796Z,6.85
2023-04-16T06:35:38.638Z,6.95
2023-04-16T06:40:41.760Z,7.07
2023-04-16T06:45:44.658Z,7.15
2023-04-16T06:50:47.578Z,7.13
2023-04-16T06:55:50.634Z,7.03
2023-04-16T07:00:53.529Z,7.03
2023-04-16T07:05:57.157Z,7.05
2023-04-16T07:11:00.366Z,7.23
2023-04-16T07:16:03.382Z,7.29
2023-04-16T07:21:06.564Z,7.22
2023-04-16T07:26:09.797Z,7.28
2023-04-16T07:31:12.884Z,7.17
2023-04-16T07:36:15.865Z,7.22
2023-04-16T07:41:18.761Z,7.48
2023-04-16T07:46:22.219Z,7.64
2023-04-16T07:51:26.262Z,7.59
2023-04-16T07:56:29.144Z,7.74
2023-04-16T08:01:33.115Z,7.78
2023-04-16T08:06:36.068Z,7.92
2023-04-16T08:11:38.915Z,8.01
2023-04-16T08:16:41.995Z,8.18
2023-04-16T08:21:45.547Z,8.12
2023-04-16T08:26:48.418Z,7.80
2023-04-16T08:31:51.408Z,7.46
2023-04-16T08:36:54.522Z,7.43
2023-04-16T08:41:59.617Z,7.46
2023-04-16T08:47:05.349Z,7.40
2023-04-16T08:52:14.891Z,7.30
2023-04-16T08:57:20.756Z,7.22
2023-04-16T09:02:26.998Z,7.32
2023-04-16T09:07:31.352Z,7.41
2023-04-16T09:12:35.864Z,7.28
2023-04-16T09:17:39.954Z,7.32
2023-04-16T09:22:43.815Z,7.39
2023-04-16T09:27:51.066Z,7.58
2023-04-16T09:33:13.219Z,7.80
2023-04-16T09:38:17.225Z,8.10
2023-04-16T09:43:21.057Z,8.31
2023-04-16T09:48:32.816Z,8.68
2023-04-16T09:53:36.164Z,8.73
2023-04-16T09:58:39.351Z,8.73
2023-04-16T10:03:43.073Z,8.60
2023-04-16T10:08:52.955Z,8.29
2023-04-16T10:13:55.811Z,8.12
2023-04-16T10:18:59.216Z,8.06
2023-04-16T10:24:03.414Z,8.12
2023-04-16T10:29:07.832Z,8.26
2023-04-16T10:34:11.441Z,8.24
2023-04-16T10:39:20.825Z,8.05
2023-04-16T10:44:25.060Z,8.08
2023-04-16T10:49:27.958Z,8.16
2023-04-16T10:54:32.205Z,8.32
2023-04-16T10:59:39.920Z,8.18
2023-04-16T11:04:46.214Z,8.12
2023-04-16T11:10:07.368Z,8.29
2023-04-16T11:15:13.670Z,8.33
2023-04-16T11:20:25.688Z,8.38
2023-04-16T11:25:31.727Z,8.32
2023-04-16T11:30:38.157Z,8.28
2023-04-16T11:35:41.561Z,8.07
2023-04-16T11:40:44.695Z,7.93
2023-04-16T11:46:12.967Z,7.94
2023-04-16T11:51:20.687Z,7.97
2023-04-16T11:56:35.871Z,8.06
2023-04-16T12:01:41.663Z,8.10
2023-04-16T12:07:14.354Z,8.19
2023-04-16T12:12:31.692Z,8.08
2023-04-16T12:17:36.522Z,8.10
2023-04-16T12:22:47.773Z,8.10
2023-04-16T12:27:56.053Z,8.10
2023-04-16T12:33:21.242Z,8.00
2023-04-16T12:38:25.718Z,7.94
2023-04-16T12:43:28.953Z,7.99
2023-04-16T12:48:32.651Z,8.03
2023-04-16T12:53:35.681Z,8.15
2023-04-16T12:58:38.762Z,8.14
2023-04-16T13:03:42.903Z,8.27
2023-04-16T13:08:46.733Z,8.37
2023-04-16T13:13:49.587Z,8.38
2023-04-16T13:18:52.567Z,8.53
2023-04-16T13:23:55.567Z,8.65
2023-04-16T13:28:58.538Z,8.63
2023-04-16T13:34:01.529Z,8.68
2023-04-16T13:39:05.505Z,8.84
2023-04-16T13:44:08.360Z,8.81
2023-04-16T13:49:11.571Z,8.71
2023-04-16T13:54:14.751Z,8.65
2023-04-16T13:59:18.684Z,8.74
2023-04-16T14:04:22.530Z,8.92
2023-04-16T14:09:25.838Z,9.17
2023-04-16T14:14:28.799Z,9.42
2023-04-16T14:19:31.666Z,9.81
2023-04-16T14:24:34.520Z,10.23
2023-04-16T14:29:37.475Z,10.39
2023-04-16T14:34:40.599Z,10.35
2023-04-16T14:39:43.629Z,10.01
2023-04-16T14:44:46.551Z,9.60
2023-04-16T14:49:49.501Z,9.28
2023-04-16T14:54:52.636Z,8.96
2023-04-16T14:59:55.549Z,8.89
2023-04-16T15:04:59.841Z,8.81
2023-04-16T15:10:03.225Z,8.76
2023-04-16T15:15:09.987Z,8.69
2023-04-16T15:20:13.596Z,8.59
2023-04-16T15:25:16.611Z,8.52
2023-04-16T15:30:19.748Z,8.45
2023-04-16T15:35:22.718Z,8.43
2023-04-16T15:40:25.764Z,8.43
2023-04-16T15:45:28.709Z,8.42
2023-04-16T15:50:31.944Z,8.44
2023-04-16T15:55:35.907Z,8.44
2023-04-16T16:00:39.341Z,8.41
2023-04-16T16:05:42.323Z,8.43
2023-04-16T16:10:45.309Z,8.40
2023-04-16T16:15:48.261Z,8.34
2023-04-16T16:20:57.329Z,8.32
2023-04-16T16:26:00.356Z,8.29
2023-04-16T16:31:07.365Z,8.29
2023-04-16T16:36:11.731Z,8.31
2023-04-16T16:41:14.695Z,8.29
2023-04-16T16:46:17.672Z,8.31
2023-04-16T16:51:20.712Z,8.27
2023-04-16T16:56:23.573Z,8.26
2023-04-16T17:01:27.195Z,8.24
2023-04-16T17:06:30.338Z,8.24
2023-04-16T17:11:33.406Z,8.24
2023-04-16T17:16:36.819Z,8.26
2023-04-16T17:21:39.888Z,8.26
2023-04-16T17:26:42.850Z,8.30
2023-04-16T17:31:45.869Z,8.35
2023-04-16T17:36:52.088Z,8.35
2023-04-16T17:41:58.634Z,8.34
2023-04-16T17:47:02.320Z,8.32
2023-04-16T17:52:05.777Z,8.31
2023-04-16T17:57:08.868Z,8.28
2023-04-16T18:02:12.285Z,8.28
2023-04-16T18:07:15.875Z,8.28
2023-04-16T18:12:19.196Z,8.23
2023-04-16T18:17:23.367Z,8.17
2023-04-16T18:22:28.491Z,8.10
2023-04-16T18:27:31.966Z,8.09
2023-04-16T18:32:35.562Z,8.04
2023-04-16T18:37:40.449Z,8.03
2023-04-16T18:42:43.464Z,8.01
2023-04-16T18:47:47.887Z,8.00
2023-04-16T18:52:50.996Z,8.00
2023-04-16T18:57:55.346Z,7.97
2023-04-16T19:02:58.264Z,7.94
2023-04-16T19:08:01.544Z,7.91
2023-04-16T19:13:06.371Z,7.87
2023-04-16T19:18:11.446Z,7.88
2023-04-16T19:23:15.404Z,7.87
2023-04-16T19:28:19.288Z,7.85
2023-04-16T19:33:22.340Z,7.83
2023-04-16T19:38:25.616Z,7.80
2023-04-16T19:43:30.982Z,7.77
2023-04-16T19:48:34.047Z,7.77
2023-04-16T19:53:37.645Z,7.78
2023-04-16T19:58:41.730Z,7.78
2023-04-16T20:03:44.926Z,7.77
2023-04-16T20:08:48.197Z,7.74
2023-04-16T20:13:51.054Z,7.72
2023-04-16T20:18:56.987Z,7.68
2023-04-16T20:24:00.735Z,7.66
2023-04-16T20:29:03.925Z,7.63
2023-04-16T20:34:07.771Z,7.56
2023-04-16T20:39:11.292Z,7.51
2023-04-16T20:44:18.369Z,7.49
2023-04-16T20:49:21.241Z,7.49
2023-04-16T20:54:24.099Z,7.48
2023-04-16T20:59:27.075Z,7.45
2023-04-16T21:04:30.360Z,7.43
2023-04-16T21:09:33.416Z,7.43
2023-04-16T21:14:36.496Z,7.44
2023-04-16T21:19:40.303Z,7.46
2023-04-16T21:24:43.190Z,7.46
2023-04-16T21:29:46.070Z,7.46
2023-04-16T21:34:48.873Z,7.45
2023-04-16T21:39:51.752Z,7.44
2023-04-16T21:44:54.580Z,7.44
2023-04-16T21:49:57.458Z,7.44
2023-04-16T21:55:01.199Z,7.42
2023-04-16T22:00:09.326Z,7.37
2023-04-16T22:05:12.702Z,7.35
2023-04-16T22:10:15.827Z,7.35
2023-04-16T22:15:18.678Z,7.38
2023-04-16T22:20:22.515Z,7.39
2023-04-16T22:25:25.852Z,7.36
2023-04-16T22:30:28.811Z,7.31
2023-04-16T22:35:31.690Z,7.28
2023-04-16T22:40:34.568Z,7.29
2023-04-16T22:45:37.546Z,7.33
2023-04-16T22:50:48.913Z,7.34
2023-04-16T22:55:51.866Z,7.34
2023-04-16T23:00:56.774Z,7.33
2023-04-16T23:05:59.742Z,7.33
2023-04-16T23:11:02.606Z,7.34
2023-04-16T23:16:06.303Z,7.33
2023-04-16T23:21:09.233Z,7.29
2023-04-16T23:26:12.171Z,7.25
2023-04-16T23:31:15.151Z,7.22
2023-04-16T23:36:18.191Z,7.26
2023-04-16T23:41:23.345Z,7.29
2023-04-16T23:46:26.332Z,7.32
2023-04-16T23:51:29.211Z,7.33
2023-04-16T23:56:32.080Z,7.32
